ESOW/VST METAR and TAF weather

Enter ICAO airport designator
Station Type Date Time Source
ESOW METAR 2022/06/26 08:20 UTC NOAA

ESOW 260820Z 17006KT 140V220 CAVOK 26/12 Q1019


Station Type Date Time Source
ESOW Decoded METAR 2022/06/26 08:20 UTC NOAA

Vasteras / Hasslo, Sweden (ESOW) 59-35N 016-38E 31M
Jun 26, 2022 - 04:20 AM EDT / 2022.06.26 0820 UTC
Wind: from the S (170 degrees) at 7 MPH (6 KT) (direction variable):0
Visibility: greater than 7 mile(s):0
Temperature: 78 F (26 C)
Dew Point: 53 F (12 C)
Relative Humidity: 41%
Pressure (altimeter): 30.09 in. Hg (1019 hPa)
ob: ESOW 260820Z 17006KT 140V220 CAVOK 26/12 Q1019
cycle: 8

Station Type Date Time Source
ESOW TAF 2021/05/19 03:36 UTC NOAA

TAF TAF ESOW 190230Z 1903/1915 27005KT CAVOK

Example: see airport list